Time,TemperatureF,DewpointF,PressureIn,WindDirection,WindDirectionDegrees,WindSpeedMPH,WindSpeedGustMPH,Humidity,HourlyPrecipIn,Conditions,Clouds,dailyrainin,SoftwareType,DateUTC
2013-08-10 00:14:00,68.5,66.1,29.84,ESE,112,0.0,-999.0,92,-99.99,,,0.00,Acu-Link.com,2013-08-10 04:14:00,
2013-08-10 00:30:00,67.6,64.9,29.85,WNW,292,0.0,-999.0,91,-99.99,,,0.00,Acu-Link.com,2013-08-10 04:30:00,
2013-08-10 00:45:00,67.1,64.4,29.84,West,270,0.0,-999.0,91,-99.99,,,0.00,Acu-Link.com,2013-08-10 04:45:00,
2013-08-10 01:00:00,67.5,65.1,29.84,WSW,247,1.7,-999.0,92,-99.99,,,0.00,Acu-Link.com,2013-08-10 05:00:00,
2013-08-10 01:15:00,67.5,65.1,29.86,SW,225,0.0,-999.0,92,-99.99,,,0.00,Acu-Link.com,2013-08-10 05:15:00,
2013-08-10 01:31:00,67.5,65.1,29.86,East,90,1.7,-999.0,92,-99.99,,,0.00,Acu-Link.com,2013-08-10 05:31:00,
2013-08-10 01:46:00,66.7,64.3,29.86,West,270,0.0,-999.0,92,-99.99,,,0.00,Acu-Link.com,2013-08-10 05:46:00,
2013-08-10 02:01:00,66.2,63.8,29.87,NNW,337,0.0,-999.0,92,-99.99,,,0.00,Acu-Link.com,2013-08-10 06:01:00,
2013-08-10 02:17:00,66.6,64.2,29.87,NE,45,1.7,-999.0,92,-99.99,,,0.00,Acu-Link.com,2013-08-10 06:17:00,
2013-08-10 02:32:00,66.7,64.3,29.86,NW,315,1.7,-999.0,92,-99.99,,,0.00,Acu-Link.com,2013-08-10 06:32:00,
2013-08-10 02:47:00,66.2,63.8,29.87,North,0,1.7,-999.0,92,-99.99,,,0.00,Acu-Link.com,2013-08-10 06:47:00,
2013-08-10 03:03:00,65.7,63.3,29.87,NW,315,1.7,-999.0,92,-99.99,,,0.00,Acu-Link.com,2013-08-10 07:03:00,
2013-08-10 03:18:00,65.3,62.9,29.87,NE,45,1.7,-999.0,92,-99.99,,,0.00,Acu-Link.com,2013-08-10 07:18:00,
2013-08-10 03:33:00,64.9,62.5,29.88,NW,315,1.7,-999.0,92,-99.99,,,0.00,Acu-Link.com,2013-08-10 07:33:00,
2013-08-10 03:48:00,64.9,62.5,29.88,ENE,67,1.7,-999.0,92,-99.99,,,0.00,Acu-Link.com,2013-08-10 07:48:00,
2013-08-10 04:05:00,64.8,62.4,29.88,ENE,67,1.7,-999.0,92,-99.99,,,0.00,Acu-Link.com,2013-08-10 08:05:00,
2013-08-10 04:20:00,64.8,62.4,29.88,NE,45,0.0,-999.0,92,-99.99,,,0.00,Acu-Link.com,2013-08-10 08:20:00,
2013-08-10 04:36:00,64.6,62.2,29.89,ESE,112,0.0,-999.0,92,-99.99,,,0.00,Acu-Link.com,2013-08-10 08:36:00,
2013-08-10 04:51:00,64.0,61.6,29.89,ESE,112,0.0,-999.0,92,-99.99,,,0.00,Acu-Link.com,2013-08-10 08:51:00,
2013-08-10 05:06:00,63.3,60.9,29.89,ENE,67,0.0,-999.0,92,-99.99,,,0.00,Acu-Link.com,2013-08-10 09:06:00,
2013-08-10 05:21:00,62.4,60.0,29.90,WSW,247,0.0,-999.0,92,-99.99,,,0.00,Acu-Link.com,2013-08-10 09:21:00,
2013-08-10 05:36:00,62.1,59.7,29.90,WSW,247,0.0,-999.0,92,-99.99,,,0.00,Acu-Link.com,2013-08-10 09:36:00,
2013-08-10 05:51:00,61.5,59.2,29.92,West,270,0.0,-999.0,92,-99.99,,,0.00,Acu-Link.com,2013-08-10 09:51:00,
2013-08-10 06:07:00,61.5,59.5,29.92,South,180,0.0,-999.0,93,-99.99,,,0.00,Acu-Link.com,2013-08-10 10:07:00,
2013-08-10 06:22:00,61.2,59.2,29.91,SSE,157,1.7,-999.0,93,-99.99,,,0.00,Acu-Link.com,2013-08-10 10:22:00,
2013-08-10 06:37:00,61.2,59.2,29.92,ENE,67,0.0,-999.0,93,-99.99,,,0.00,Acu-Link.com,2013-08-10 10:37:00,
2013-08-10 06:52:00,61.3,59.3,29.93,ENE,67,0.0,-999.0,93,-99.99,,,0.00,Acu-Link.com,2013-08-10 10:52:00,
2013-08-10 07:08:00,62.6,60.5,29.93,ESE,112,1.7,-999.0,93,-99.99,,,0.00,Acu-Link.com,2013-08-10 11:08:00,
2013-08-10 07:23:00,65.5,62.8,29.94,SW,225,1.1,-999.0,91,-99.99,,,0.00,Acu-Link.com,2013-08-10 11:23:00,
2013-08-10 07:38:00,67.6,63.9,29.94,SW,225,0.0,-999.0,88,-99.99,,,0.00,Acu-Link.com,2013-08-10 11:38:00,
2013-08-10 07:53:00,68.0,64.0,29.95,NE,45,3.2,-999.0,87,-99.99,,,0.00,Acu-Link.com,2013-08-10 11:53:00,
2013-08-10 08:09:00,67.8,64.1,29.94,NNW,337,2.2,-999.0,88,-99.99,,,0.00,Acu-Link.com,2013-08-10 12:09:00,
2013-08-10 08:24:00,68.7,64.7,29.95,NNE,22,0.0,-999.0,87,-99.99,,,0.00,Acu-Link.com,2013-08-10 12:24:00,
2013-08-10 08:39:00,69.6,65.6,29.96,West,270,1.7,-999.0,87,-99.99,,,0.00,Acu-Link.com,2013-08-10 12:39:00,
2013-08-10 08:55:00,69.8,65.4,29.96,NW,315,2.7,-999.0,86,-99.99,,,0.00,Acu-Link.com,2013-08-10 12:55:00,
2013-08-10 09:10:00,69.8,65.4,29.96,East,90,2.7,-999.0,86,-99.99,,,0.00,Acu-Link.com,2013-08-10 13:10:00,
2013-08-10 09:25:00,70.7,64.6,29.96,WSW,247,1.1,-999.0,81,-99.99,,,0.00,Acu-Link.com,2013-08-10 13:25:00,
2013-08-10 09:41:00,72.9,66.0,29.95,North,0,0.0,-999.0,79,-99.99,,,0.00,Acu-Link.com,2013-08-10 13:41:00,
2013-08-10 09:56:00,72.5,64.5,29.95,NNE,22,0.0,-999.0,76,-99.99,,,0.00,Acu-Link.com,2013-08-10 13:56:00,
2013-08-10 10:11:00,74.8,65.6,29.95,South,180,0.0,-999.0,73,-99.99,,,0.00,Acu-Link.com,2013-08-10 14:11:00,
2013-08-10 10:27:00,76.8,64.1,29.95,WSW,247,1.1,-999.0,65,-99.99,,,0.00,Acu-Link.com,2013-08-10 14:27:00,
2013-08-10 10:42:00,75.2,64.7,29.96,ENE,67,2.2,-999.0,70,-99.99,,,0.00,Acu-Link.com,2013-08-10 14:42:00,
2013-08-10 10:57:00,77.2,64.9,29.94,WNW,292,2.2,-999.0,66,-99.99,,,0.00,Acu-Link.com,2013-08-10 14:57:00,
2013-08-10 11:12:00,77.0,64.8,29.94,NNW,337,2.7,-999.0,66,-99.99,,,0.00,Acu-Link.com,2013-08-10 15:12:00,
2013-08-10 11:28:00,78.3,64.6,29.94,West,270,2.7,-999.0,63,-99.99,,,0.00,Acu-Link.com,2013-08-10 15:28:00,
2013-08-10 11:43:00,78.3,65.1,29.94,WNW,292,2.2,-999.0,64,-99.99,,,0.00,Acu-Link.com,2013-08-10 15:43:00,
2013-08-10 11:58:00,79.9,64.8,29.93,SSW,202,2.2,-999.0,60,-99.99,,,0.00,Acu-Link.com,2013-08-10 15:58:00,
2013-08-10 12:13:00,81.5,66.3,29.93,West,270,3.7,-999.0,60,-99.99,,,0.00,Acu-Link.com,2013-08-10 16:13:00,
2013-08-10 12:29:00,82.4,67.6,29.92,NE,45,2.2,-999.0,61,-99.99,,,0.00,Acu-Link.com,2013-08-10 16:29:00,
2013-08-10 12:44:00,83.1,65.2,29.92,NNW,337,1.7,-999.0,55,-99.99,,,0.00,Acu-Link.com,2013-08-10 16:44:00,
2013-08-10 12:59:00,82.4,64.1,29.92,NNW,337,3.2,-999.0,54,-99.99,,,0.00,Acu-Link.com,2013-08-10 16:59:00,
2013-08-10 13:14:00,83.1,64.7,29.91,ESE,112,2.7,-999.0,54,-99.99,,,0.00,Acu-Link.com,2013-08-10 17:14:00,
2013-08-10 13:30:00,84.2,64.6,29.91,ESE,112,3.2,-999.0,52,-99.99,,,0.00,Acu-Link.com,2013-08-10 17:30:00,
2013-08-10 13:45:00,83.5,64.5,29.92,NE,45,4.2,-999.0,53,-99.99,,,0.00,Acu-Link.com,2013-08-10 17:45:00,
2013-08-10 14:00:00,83.7,64.7,29.92,North,0,2.2,-999.0,53,-99.99,,,0.00,Acu-Link.com,2013-08-10 18:00:00,
2013-08-10 14:16:00,82.0,63.2,29.91,North,0,0.0,-999.0,53,-99.99,,,0.00,Acu-Link.com,2013-08-10 18:16:00,
2013-08-10 14:31:00,83.3,63.8,29.91,West,270,4.2,-999.0,52,-99.99,,,0.00,Acu-Link.com,2013-08-10 18:31:00,
2013-08-10 14:46:00,85.5,62.9,29.92,West,270,4.2,-999.0,47,-99.99,,,0.00,Acu-Link.com,2013-08-10 18:46:00,
2013-08-10 15:01:00,82.9,60.0,29.91,SSE,157,2.2,-999.0,46,-99.99,,,0.00,Acu-Link.com,2013-08-10 19:01:00,
2013-08-10 15:17:00,85.6,58.5,29.90,West,270,6.3,-999.0,40,-99.99,,,0.00,Acu-Link.com,2013-08-10 19:17:00,
2013-08-10 15:32:00,86.7,58.7,29.91,SW,225,5.3,-999.0,39,-99.99,,,0.00,Acu-Link.com,2013-08-10 19:32:00,
2013-08-10 15:47:00,84.4,59.4,29.90,ENE,67,1.7,-999.0,43,-99.99,,,0.00,Acu-Link.com,2013-08-10 19:47:00,
2013-08-10 16:03:00,86.5,58.6,29.91,West,270,6.3,-999.0,39,-99.99,,,0.00,Acu-Link.com,2013-08-10 20:03:00,
2013-08-10 16:18:00,83.8,58.9,29.90,WNW,292,2.7,-999.0,43,-99.99,,,0.00,Acu-Link.com,2013-08-10 20:18:00,
2013-08-10 16:33:00,84.4,60.1,29.89,ENE,67,1.1,-999.0,44,-99.99,,,0.00,Acu-Link.com,2013-08-10 20:33:00,
2013-08-10 16:48:00,85.1,57.3,29.90,South,180,2.2,-999.0,39,-99.99,,,0.00,Acu-Link.com,2013-08-10 20:48:00,
2013-08-10 17:04:00,84.0,57.1,29.92,NW,315,2.2,-999.0,40,-99.99,,,0.00,Acu-Link.com,2013-08-10 21:04:00,
2013-08-10 17:19:00,86.2,57.6,29.90,NNW,337,4.7,-999.0,38,-99.99,,,0.00,Acu-Link.com,2013-08-10 21:19:00,
2013-08-10 17:34:00,84.6,56.9,29.91,West,270,0.0,-999.0,39,-99.99,,,0.00,Acu-Link.com,2013-08-10 21:34:00,
2013-08-10 17:49:00,83.5,59.3,29.92,NW,315,3.7,-999.0,44,-99.99,,,0.00,Acu-Link.com,2013-08-10 21:49:00,
2013-08-10 18:05:00,83.5,59.3,29.90,West,270,1.7,-999.0,44,-99.99,,,0.00,Acu-Link.com,2013-08-10 22:05:00,
2013-08-10 18:20:00,82.4,58.9,29.90,West,270,2.2,-999.0,45,-99.99,,,0.00,Acu-Link.com,2013-08-10 22:20:00,
2013-08-10 18:35:00,82.2,58.7,29.90,WNW,292,0.0,-999.0,45,-99.99,,,0.00,Acu-Link.com,2013-08-10 22:35:00,
2013-08-10 18:51:00,81.3,59.7,29.90,West,270,1.1,-999.0,48,-99.99,,,0.00,Acu-Link.com,2013-08-10 22:51:00,
2013-08-10 19:06:00,79.9,59.0,29.90,WNW,292,1.1,-999.0,49,-99.99,,,0.00,Acu-Link.com,2013-08-10 23:06:00,
2013-08-10 19:21:00,78.8,59.1,29.92,West,270,1.1,-999.0,51,-99.99,,,0.00,Acu-Link.com,2013-08-10 23:21:00,
2013-08-10 19:36:00,77.7,57.6,29.91,West,270,1.1,-999.0,50,-99.99,,,0.00,Acu-Link.com,2013-08-10 23:36:00,
2013-08-10 19:52:00,76.6,57.1,29.92,West,270,0.0,-999.0,51,-99.99,,,0.00,Acu-Link.com,2013-08-10 23:52:00,
2013-08-10 20:07:00,75.4,57.1,29.92,WNW,292,0.0,-999.0,53,-99.99,,,0.00,Acu-Link.com,2013-08-11 00:07:00,
2013-08-10 20:22:00,73.6,56.9,29.94,NNW,337,1.1,-999.0,56,-99.99,,,0.00,Acu-Link.com,2013-08-11 00:22:00,
2013-08-10 20:38:00,71.2,60.9,29.94,SSE,157,1.1,-999.0,70,-99.99,,,0.00,Acu-Link.com,2013-08-11 00:38:00,
2013-08-10 20:53:00,70.7,59.2,29.95,ESE,112,0.0,-999.0,67,-99.99,,,0.00,Acu-Link.com,2013-08-11 00:53:00,
2013-08-10 21:08:00,69.1,60.8,29.95,SSE,157,2.2,-999.0,75,-99.99,,,0.00,Acu-Link.com,2013-08-11 01:08:00,
2013-08-10 21:24:00,67.6,60.5,29.95,South,180,0.0,-999.0,78,-99.99,,,0.00,Acu-Link.com,2013-08-11 01:24:00,
2013-08-10 21:39:00,66.4,60.4,29.94,ENE,67,2.2,-999.0,81,-99.99,,,0.00,Acu-Link.com,2013-08-11 01:39:00,
2013-08-10 21:54:00,65.3,60.3,29.96,WNW,292,0.0,-999.0,84,-99.99,,,0.00,Acu-Link.com,2013-08-11 01:54:00,
2013-08-10 22:09:00,64.2,59.6,29.96,SE,135,0.0,-999.0,85,-99.99,,,0.00,Acu-Link.com,2013-08-11 02:09:00,
2013-08-10 22:24:00,63.7,59.1,29.97,SE,135,0.0,-999.0,85,-99.99,,,0.00,Acu-Link.com,2013-08-11 02:24:00,
2013-08-10 22:39:00,63.1,58.8,29.97,NE,45,1.7,-999.0,86,-99.99,,,0.00,Acu-Link.com,2013-08-11 02:39:00,
2013-08-10 23:25:00,61.2,57.3,29.98,ESE,112,1.1,-999.0,87,-99.99,,,0.00,Acu-Link.com,2013-08-11 03:25:00,
2013-08-10 23:41:00,60.8,56.9,29.99,ESE,112,0.0,-999.0,87,-99.99,,,0.00,Acu-Link.com,2013-08-11 03:41:00,
2013-08-10 23:56:00,60.8,57.2,29.98,ESE,112,0.0,-999.0,88,-99.99,,,0.00,Acu-Link.com,2013-08-11 03:56:00,